sensor_id;sensor_type;location;lat;lon;timestamp;temperature;humidity
5868;DHT22;2960;49.142;7.768;2023-12-29T00:00:06;10.70;91.80
5868;DHT22;2960;49.142;7.768;2023-12-29T00:02:35;10.70;91.80
5868;DHT22;2960;49.142;7.768;2023-12-29T00:05:03;10.70;91.80
5868;DHT22;2960;49.142;7.768;2023-12-29T00:07:31;10.70;91.70
5868;DHT22;2960;49.142;7.768;2023-12-29T00:09:58;10.70;91.60
5868;DHT22;2960;49.142;7.768;2023-12-29T00:12:25;10.70;91.60
5868;DHT22;2960;49.142;7.768;2023-12-29T00:14:54;10.70;91.60
5868;DHT22;2960;49.142;7.768;2023-12-29T00:17:21;10.70;91.70
5868;DHT22;2960;49.142;7.768;2023-12-29T00:19:48;10.70;91.70
5868;DHT22;2960;49.142;7.768;2023-12-29T00:22:16;10.70;91.70
5868;DHT22;2960;49.142;7.768;2023-12-29T00:24:43;10.70;91.60
5868;DHT22;2960;49.142;7.768;2023-12-29T00:27:10;10.70;91.60
5868;DHT22;2960;49.142;7.768;2023-12-29T00:29:38;10.70;91.60
5868;DHT22;2960;49.142;7.768;2023-12-29T00:32:06;10.70;91.60
5868;DHT22;2960;49.142;7.768;2023-12-29T00:34:34;10.60;91.60
5868;DHT22;2960;49.142;7.768;2023-12-29T00:37:03;10.60;91.90
5868;DHT22;2960;49.142;7.768;2023-12-29T00:39:31;10.60;91.70
5868;DHT22;2960;49.142;7.768;2023-12-29T00:42:04;10.60;91.60
5868;DHT22;2960;49.142;7.768;2023-12-29T00:44:31;10.60;91.60
5868;DHT22;2960;49.142;7.768;2023-12-29T00:46:59;10.60;91.70
5868;DHT22;2960;49.142;7.768;2023-12-29T00:49:28;10.60;91.60
5868;DHT22;2960;49.142;7.768;2023-12-29T00:51:55;10.60;91.80
5868;DHT22;2960;49.142;7.768;2023-12-29T00:54:22;10.60;91.50
5868;DHT22;2960;49.142;7.768;2023-12-29T00:56:49;10.60;91.50
5868;DHT22;2960;49.142;7.768;2023-12-29T00:59:18;10.60;91.50
5868;DHT22;2960;49.142;7.768;2023-12-29T01:01:46;10.60;91.50
5868;DHT22;2960;49.142;7.768;2023-12-29T01:04:13;10.60;91.50
5868;DHT22;2960;49.142;7.768;2023-12-29T01:06:42;10.60;91.40
5868;DHT22;2960;49.142;7.768;2023-12-29T01:09:09;10.70;91.40
5868;DHT22;2960;49.142;7.768;2023-12-29T01:11:37;10.60;91.30
5868;DHT22;2960;49.142;7.768;2023-12-29T01:14:04;10.70;91.40
5868;DHT22;2960;49.142;7.768;2023-12-29T01:16:32;10.70;91.60
5868;DHT22;2960;49.142;7.768;2023-12-29T01:19:02;10.70;91.30
5868;DHT22;2960;49.142;7.768;2023-12-29T01:21:29;10.70;91.20
5868;DHT22;2960;49.142;7.768;2023-12-29T01:24:01;10.70;91.10
5868;DHT22;2960;49.142;7.768;2023-12-29T01:26:29;10.70;91.00
5868;DHT22;2960;49.142;7.768;2023-12-29T01:28:56;10.70;90.90
5868;DHT22;2960;49.142;7.768;2023-12-29T01:31:22;10.80;90.80
5868;DHT22;2960;49.142;7.768;2023-12-29T01:33:49;10.70;91.10
5868;DHT22;2960;49.142;7.768;2023-12-29T01:36:19;10.70;90.80
5868;DHT22;2960;49.142;7.768;2023-12-29T01:38:47;10.70;90.70
5868;DHT22;2960;49.142;7.768;2023-12-29T01:41:15;10.70;90.60
5868;DHT22;2960;49.142;7.768;2023-12-29T01:44:20;10.70;90.50
5868;DHT22;2960;49.142;7.768;2023-12-29T01:46:49;10.70;90.40
5868;DHT22;2960;49.142;7.768;2023-12-29T01:49:18;10.70;90.50
5868;DHT22;2960;49.142;7.768;2023-12-29T01:51:50;10.70;90.40
5868;DHT22;2960;49.142;7.768;2023-12-29T01:54:18;10.70;90.30
5868;DHT22;2960;49.142;7.768;2023-12-29T01:56:48;10.70;90.20
5868;DHT22;2960;49.142;7.768;2023-12-29T01:59:17;10.70;90.10
5868;DHT22;2960;49.142;7.768;2023-12-29T02:01:45;10.70;90.10
5868;DHT22;2960;49.142;7.768;2023-12-29T02:04:12;10.60;90.10
5868;DHT22;2960;49.142;7.768;2023-12-29T02:06:40;10.60;90.30
5868;DHT22;2960;49.142;7.768;2023-12-29T02:09:08;10.60;90.00
5868;DHT22;2960;49.142;7.768;2023-12-29T02:11:35;10.60;90.00
5868;DHT22;2960;49.142;7.768;2023-12-29T02:14:04;10.60;89.90
5868;DHT22;2960;49.142;7.768;2023-12-29T02:16:45;10.60;89.70
5868;DHT22;2960;49.142;7.768;2023-12-29T02:19:25;10.60;89.40
5868;DHT22;2960;49.142;7.768;2023-12-29T02:22:03;10.60;89.40
5868;DHT22;2960;49.142;7.768;2023-12-29T02:24:30;10.60;89.30
5868;DHT22;2960;49.142;7.768;2023-12-29T02:27:06;10.60;89.20
5868;DHT22;2960;49.142;7.768;2023-12-29T02:29:40;10.60;89.20
5868;DHT22;2960;49.142;7.768;2023-12-29T02:32:14;10.60;89.20
5868;DHT22;2960;49.142;7.768;2023-12-29T02:34:44;10.60;89.20
5868;DHT22;2960;49.142;7.768;2023-12-29T02:37:15;10.60;89.80
5868;DHT22;2960;49.142;7.768;2023-12-29T02:39:42;10.60;89.00
5868;DHT22;2960;49.142;7.768;2023-12-29T02:42:11;10.60;88.80
5868;DHT22;2960;49.142;7.768;2023-12-29T02:44:38;10.50;88.60
5868;DHT22;2960;49.142;7.768;2023-12-29T02:47:05;10.50;88.70
5868;DHT22;2960;49.142;7.768;2023-12-29T02:49:33;10.50;88.60
5868;DHT22;2960;49.142;7.768;2023-12-29T02:52:00;10.50;88.60
5868;DHT22;2960;49.142;7.768;2023-12-29T02:54:27;10.50;88.60
5868;DHT22;2960;49.142;7.768;2023-12-29T02:56:54;10.50;88.60
5868;DHT22;2960;49.142;7.768;2023-12-29T02:59:23;10.50;88.60
5868;DHT22;2960;49.142;7.768;2023-12-29T03:01:50;10.50;88.40
5868;DHT22;2960;49.142;7.768;2023-12-29T03:04:17;10.50;88.50
5868;DHT22;2960;49.142;7.768;2023-12-29T03:06:44;10.50;88.30
5868;DHT22;2960;49.142;7.768;2023-12-29T03:09:11;10.50;88.30
5868;DHT22;2960;49.142;7.768;2023-12-29T03:11:41;10.50;88.10
5868;DHT22;2960;49.142;7.768;2023-12-29T03:14:08;10.50;88.20
5868;DHT22;2960;49.142;7.768;2023-12-29T03:16:36;10.50;88.00
5868;DHT22;2960;49.142;7.768;2023-12-29T03:19:03;10.50;88.10
5868;DHT22;2960;49.142;7.768;2023-12-29T03:21:30;10.50;88.00
5868;DHT22;2960;49.142;7.768;2023-12-29T03:23:57;10.70;88.10
5868;DHT22;2960;49.142;7.768;2023-12-29T03:26:25;10.70;88.10
5868;DHT22;2960;49.142;7.768;2023-12-29T03:28:52;10.60;88.10
5868;DHT22;2960;49.142;7.768;2023-12-29T03:31:19;10.60;87.90
5868;DHT22;2960;49.142;7.768;2023-12-29T03:33:47;10.60;87.80
5868;DHT22;2960;49.142;7.768;2023-12-29T03:36:17;10.60;87.90
5868;DHT22;2960;49.142;7.768;2023-12-29T03:38:44;10.60;87.70
5868;DHT22;2960;49.142;7.768;2023-12-29T03:41:11;10.60;87.70
5868;DHT22;2960;49.142;7.768;2023-12-29T03:43:38;10.60;87.80
5868;DHT22;2960;49.142;7.768;2023-12-29T03:46:15;10.60;87.80
5868;DHT22;2960;49.142;7.768;2023-12-29T03:48:43;10.70;87.90
5868;DHT22;2960;49.142;7.768;2023-12-29T03:51:12;10.70;87.70
5868;DHT22;2960;49.142;7.768;2023-12-29T03:53:40;10.70;87.60
5868;DHT22;2960;49.142;7.768;2023-12-29T03:56:07;10.70;87.50
5868;DHT22;2960;49.142;7.768;2023-12-29T03:58:35;10.70;87.40
5868;DHT22;2960;49.142;7.768;2023-12-29T04:01:02;10.70;87.20
5868;DHT22;2960;49.142;7.768;2023-12-29T04:03:29;10.70;87.20
5868;DHT22;2960;49.142;7.768;2023-12-29T04:05:56;10.80;87.40
5868;DHT22;2960;49.142;7.768;2023-12-29T04:08:25;10.70;87.10
5868;DHT22;2960;49.142;7.768;2023-12-29T04:10:52;10.70;87.80
5868;DHT22;2960;49.142;7.768;2023-12-29T04:13:19;10.70;87.20
5868;DHT22;2960;49.142;7.768;2023-12-29T04:15:46;10.70;87.20
5868;DHT22;2960;49.142;7.768;2023-12-29T04:18:13;10.70;87.30
5868;DHT22;2960;49.142;7.768;2023-12-29T04:20:40;10.70;87.50
5868;DHT22;2960;49.142;7.768;2023-12-29T04:23:07;10.70;87.50
5868;DHT22;2960;49.142;7.768;2023-12-29T04:25:36;10.70;87.50
5868;DHT22;2960;49.142;7.768;2023-12-29T04:28:03;10.70;87.60
5868;DHT22;2960;49.142;7.768;2023-12-29T04:30:31;10.70;87.70
5868;DHT22;2960;49.142;7.768;2023-12-29T04:32:58;10.70;87.80
5868;DHT22;2960;49.142;7.768;2023-12-29T04:35:25;10.70;88.10
5868;DHT22;2960;49.142;7.768;2023-12-29T04:37:52;10.70;88.30
5868;DHT22;2960;49.142;7.768;2023-12-29T04:40:19;10.70;88.30
5868;DHT22;2960;49.142;7.768;2023-12-29T04:42:48;10.70;88.40
5868;DHT22;2960;49.142;7.768;2023-12-29T04:45:15;10.70;88.50
5868;DHT22;2960;49.142;7.768;2023-12-29T04:47:42;10.70;88.50
5868;DHT22;2960;49.142;7.768;2023-12-29T04:50:09;10.70;88.50
5868;DHT22;2960;49.142;7.768;2023-12-29T04:52:36;10.70;88.50
5868;DHT22;2960;49.142;7.768;2023-12-29T04:55:04;10.60;88.50
5868;DHT22;2960;49.142;7.768;2023-12-29T04:57:31;10.60;88.60
5868;DHT22;2960;49.142;7.768;2023-12-29T05:00:00;10.60;88.60
5868;DHT22;2960;49.142;7.768;2023-12-29T05:02:30;10.60;88.60
5868;DHT22;2960;49.142;7.768;2023-12-29T05:04:57;10.60;88.60
5868;DHT22;2960;49.142;7.768;2023-12-29T05:07:26;10.60;88.70
5868;DHT22;2960;49.142;7.768;2023-12-29T05:09:53;10.60;88.70
5868;DHT22;2960;49.142;7.768;2023-12-29T05:12:23;10.60;88.60
5868;DHT22;2960;49.142;7.768;2023-12-29T05:14:50;10.60;88.60
5868;DHT22;2960;49.142;7.768;2023-12-29T05:17:19;10.60;88.40
5868;DHT22;2960;49.142;7.768;2023-12-29T05:19:46;10.60;88.30
5868;DHT22;2960;49.142;7.768;2023-12-29T05:22:13;10.60;88.20
5868;DHT22;2960;49.142;7.768;2023-12-29T05:24:43;10.60;87.90
5868;DHT22;2960;49.142;7.768;2023-12-29T05:27:10;10.60;87.80
5868;DHT22;2960;49.142;7.768;2023-12-29T05:29:38;10.60;87.70
5868;DHT22;2960;49.142;7.768;2023-12-29T05:32:06;10.60;87.40
5868;DHT22;2960;49.142;7.768;2023-12-29T05:34:35;10.60;87.20
5868;DHT22;2960;49.142;7.768;2023-12-29T05:37:02;10.60;86.80
5868;DHT22;2960;49.142;7.768;2023-12-29T05:39:30;10.60;86.70
5868;DHT22;2960;49.142;7.768;2023-12-29T05:41:57;10.50;86.60
5868;DHT22;2960;49.142;7.768;2023-12-29T05:44:24;10.50;86.50
5868;DHT22;2960;49.142;7.768;2023-12-29T05:46:51;10.60;86.40
5868;DHT22;2960;49.142;7.768;2023-12-29T05:49:24;10.60;86.30
5868;DHT22;2960;49.142;7.768;2023-12-29T05:51:53;10.60;86.20
5868;DHT22;2960;49.142;7.768;2023-12-29T05:54:20;10.60;86.20
5868;DHT22;2960;49.142;7.768;2023-12-29T05:56:48;10.60;86.00
5868;DHT22;2960;49.142;7.768;2023-12-29T05:59:15;10.60;85.80
5868;DHT22;2960;49.142;7.768;2023-12-29T06:01:42;10.50;85.60
5868;DHT22;2960;49.142;7.768;2023-12-29T06:04:09;10.60;85.70
5868;DHT22;2960;49.142;7.768;2023-12-29T06:06:36;10.60;85.50
5868;DHT22;2960;49.142;7.768;2023-12-29T06:09:05;10.60;85.40
5868;DHT22;2960;49.142;7.768;2023-12-29T06:11:32;10.60;85.20
5868;DHT22;2960;49.142;7.768;2023-12-29T06:14:02;10.60;85.20
5868;DHT22;2960;49.142;7.768;2023-12-29T06:16:29;10.60;85.10
5868;DHT22;2960;49.142;7.768;2023-12-29T06:18:56;10.60;85.00
5868;DHT22;2960;49.142;7.768;2023-12-29T06:21:24;10.60;84.90
5868;DHT22;2960;49.142;7.768;2023-12-29T06:23:51;10.60;84.80
5868;DHT22;2960;49.142;7.768;2023-12-29T06:26:20;10.60;84.80
5868;DHT22;2960;49.142;7.768;2023-12-29T06:28:48;10.60;84.70
5868;DHT22;2960;49.142;7.768;2023-12-29T06:31:17;10.60;85.30
5868;DHT22;2960;49.142;7.768;2023-12-29T06:33:44;10.60;84.50
5868;DHT22;2960;49.142;7.768;2023-12-29T06:36:12;10.60;84.40
5868;DHT22;2960;49.142;7.768;2023-12-29T06:38:39;10.60;84.30
5868;DHT22;2960;49.142;7.768;2023-12-29T06:41:06;10.60;84.00
5868;DHT22;2960;49.142;7.768;2023-12-29T06:43:35;10.60;84.00
5868;DHT22;2960;49.142;7.768;2023-12-29T06:46:05;10.60;84.10
5868;DHT22;2960;49.142;7.768;2023-12-29T06:48:34;10.60;84.00
5868;DHT22;2960;49.142;7.768;2023-12-29T06:51:01;10.60;84.00
5868;DHT22;2960;49.142;7.768;2023-12-29T06:53:29;10.60;83.80
5868;DHT22;2960;49.142;7.768;2023-12-29T06:55:56;10.60;83.80
5868;DHT22;2960;49.142;7.768;2023-12-29T06:58:24;10.70;83.80
5868;DHT22;2960;49.142;7.768;2023-12-29T07:00:52;10.60;83.60
5868;DHT22;2960;49.142;7.768;2023-12-29T07:03:21;10.70;83.60
5868;DHT22;2960;49.142;7.768;2023-12-29T07:05:48;10.70;83.30
5868;DHT22;2960;49.142;7.768;2023-12-29T07:08:15;10.70;83.30
5868;DHT22;2960;49.142;7.768;2023-12-29T07:10:42;10.70;83.30
5868;DHT22;2960;49.142;7.768;2023-12-29T07:13:09;10.70;83.20
5868;DHT22;2960;49.142;7.768;2023-12-29T07:15:39;10.70;83.00
5868;DHT22;2960;49.142;7.768;2023-12-29T07:18:08;10.70;82.80
5868;DHT22;2960;49.142;7.768;2023-12-29T07:20:35;10.70;82.80
5868;DHT22;2960;49.142;7.768;2023-12-29T07:23:03;10.70;82.70
5868;DHT22;2960;49.142;7.768;2023-12-29T07:25:30;10.70;82.70
5868;DHT22;2960;49.142;7.768;2023-12-29T07:27:58;10.70;82.70
5868;DHT22;2960;49.142;7.768;2023-12-29T07:30:25;10.70;82.70
5868;DHT22;2960;49.142;7.768;2023-12-29T07:32:52;10.70;82.70
5868;DHT22;2960;49.142;7.768;2023-12-29T07:35:21;10.70;82.50
5868;DHT22;2960;49.142;7.768;2023-12-29T07:37:48;10.70;82.40
5868;DHT22;2960;49.142;7.768;2023-12-29T07:40:16;10.70;82.30
5868;DHT22;2960;49.142;7.768;2023-12-29T07:42:43;10.80;82.40
5868;DHT22;2960;49.142;7.768;2023-12-29T07:45:14;10.80;82.20
5868;DHT22;2960;49.142;7.768;2023-12-29T07:47:41;10.80;82.20
5868;DHT22;2960;49.142;7.768;2023-12-29T07:50:11;10.80;82.30
5868;DHT22;2960;49.142;7.768;2023-12-29T07:52:42;10.80;82.30
5868;DHT22;2960;49.142;7.768;2023-12-29T07:55:09;10.80;82.40
5868;DHT22;2960;49.142;7.768;2023-12-29T07:57:36;10.80;82.30
5868;DHT22;2960;49.142;7.768;2023-12-29T08:00:05;10.80;82.40
5868;DHT22;2960;49.142;7.768;2023-12-29T08:02:33;10.80;82.30
5868;DHT22;2960;49.142;7.768;2023-12-29T08:05:00;10.80;82.40
5868;DHT22;2960;49.142;7.768;2023-12-29T08:07:28;10.90;82.40
5868;DHT22;2960;49.142;7.768;2023-12-29T08:09:56;10.90;82.40
5868;DHT22;2960;49.142;7.768;2023-12-29T08:12:24;10.90;82.30
5868;DHT22;2960;49.142;7.768;2023-12-29T08:14:51;10.90;82.20
5868;DHT22;2960;49.142;7.768;2023-12-29T08:17:18;10.90;82.10
5868;DHT22;2960;49.142;7.768;2023-12-29T08:19:45;10.90;82.70
5868;DHT22;2960;49.142;7.768;2023-12-29T08:22:12;11.00;82.10
5868;DHT22;2960;49.142;7.768;2023-12-29T08:24:40;11.00;81.90
5868;DHT22;2960;49.142;7.768;2023-12-29T08:27:12;11.00;81.60
5868;DHT22;2960;49.142;7.768;2023-12-29T08:29:40;11.00;81.50
5868;DHT22;2960;49.142;7.768;2023-12-29T08:32:07;11.00;81.60
5868;DHT22;2960;49.142;7.768;2023-12-29T08:34:34;11.00;81.60
5868;DHT22;2960;49.142;7.768;2023-12-29T08:37:03;11.10;81.60
5868;DHT22;2960;49.142;7.768;2023-12-29T08:39:31;11.10;81.20
5868;DHT22;2960;49.142;7.768;2023-12-29T08:41:58;11.10;80.70
5868;DHT22;2960;49.142;7.768;2023-12-29T08:44:27;11.10;80.50
5868;DHT22;2960;49.142;7.768;2023-12-29T08:46:54;11.10;80.00
5868;DHT22;2960;49.142;7.768;2023-12-29T08:49:21;11.10;79.70
5868;DHT22;2960;49.142;7.768;2023-12-29T08:51:48;11.10;79.60
5868;DHT22;2960;49.142;7.768;2023-12-29T08:54:15;11.10;79.60
5868;DHT22;2960;49.142;7.768;2023-12-29T08:56:42;11.10;80.50
5868;DHT22;2960;49.142;7.768;2023-12-29T08:59:09;11.10;79.50
5868;DHT22;2960;49.142;7.768;2023-12-29T09:01:40;11.10;79.40
5868;DHT22;2960;49.142;7.768;2023-12-29T09:04:07;11.10;79.10
5868;DHT22;2960;49.142;7.768;2023-12-29T09:06:34;11.10;79.10
5868;DHT22;2960;49.142;7.768;2023-12-29T09:09:02;11.10;78.90
5868;DHT22;2960;49.142;7.768;2023-12-29T09:11:29;11.20;78.90
5868;DHT22;2960;49.142;7.768;2023-12-29T09:13:56;11.30;79.10
5868;DHT22;2960;49.142;7.768;2023-12-29T09:16:23;11.40;79.20
5868;DHT22;2960;49.142;7.768;2023-12-29T09:18:51;11.50;78.90
5868;DHT22;2960;49.142;7.768;2023-12-29T09:21:18;11.60;78.30
5868;DHT22;2960;49.142;7.768;2023-12-29T09:23:46;11.70;77.90
5868;DHT22;2960;49.142;7.768;2023-12-29T09:26:13;11.70;77.40
5868;DHT22;2960;49.142;7.768;2023-12-29T09:28:42;11.70;77.50
5868;DHT22;2960;49.142;7.768;2023-12-29T09:31:09;11.70;77.10
5868;DHT22;2960;49.142;7.768;2023-12-29T09:33:36;11.70;76.70
5868;DHT22;2960;49.142;7.768;2023-12-29T09:36:06;11.70;76.30
5868;DHT22;2960;49.142;7.768;2023-12-29T09:38:33;11.70;75.80
5868;DHT22;2960;49.142;7.768;2023-12-29T09:41:04;11.70;75.80
5868;DHT22;2960;49.142;7.768;2023-12-29T09:43:36;11.60;75.50
5868;DHT22;2960;49.142;7.768;2023-12-29T09:46:05;11.60;75.60
5868;DHT22;2960;49.142;7.768;2023-12-29T09:48:34;11.60;75.80
5868;DHT22;2960;49.142;7.768;2023-12-29T09:51:05;11.70;76.10
5868;DHT22;2960;49.142;7.768;2023-12-29T09:53:34;11.70;76.10
5868;DHT22;2960;49.142;7.768;2023-12-29T09:56:03;11.90;76.60
5868;DHT22;2960;49.142;7.768;2023-12-29T09:58:34;12.10;76.30
5868;DHT22;2960;49.142;7.768;2023-12-29T10:01:04;12.30;75.90
5868;DHT22;2960;49.142;7.768;2023-12-29T10:03:33;12.40;75.30
5868;DHT22;2960;49.142;7.768;2023-12-29T10:06:06;12.50;75.10
5868;DHT22;2960;49.142;7.768;2023-12-29T10:08:34;12.60;75.10
5868;DHT22;2960;49.142;7.768;2023-12-29T10:11:04;12.80;75.10
5868;DHT22;2960;49.142;7.768;2023-12-29T10:13:33;13.00;74.40
5868;DHT22;2960;49.142;7.768;2023-12-29T10:16:08;13.10;73.90
5868;DHT22;2960;49.142;7.768;2023-12-29T10:18:45;13.40;73.90
5868;DHT22;2960;49.142;7.768;2023-12-29T10:21:23;13.60;73.20
5868;DHT22;2960;49.142;7.768;2023-12-29T10:23:58;13.80;72.20
5868;DHT22;2960;49.142;7.768;2023-12-29T10:26:30;13.90;71.20
5868;DHT22;2960;49.142;7.768;2023-12-29T10:28:58;14.00;71.30
5868;DHT22;2960;49.142;7.768;2023-12-29T10:31:26;14.00;71.40
5868;DHT22;2960;49.142;7.768;2023-12-29T10:34:16;14.20;70.80
5868;DHT22;2960;49.142;7.768;2023-12-29T10:36:49;14.20;70.20
5868;DHT22;2960;49.142;7.768;2023-12-29T10:39:16;14.20;71.10
5868;DHT22;2960;49.142;7.768;2023-12-29T10:41:43;14.20;69.70
5868;DHT22;2960;49.142;7.768;2023-12-29T10:44:10;14.20;69.10
5868;DHT22;2960;49.142;7.768;2023-12-29T10:46:38;14.10;68.90
5868;DHT22;2960;49.142;7.768;2023-12-29T10:49:08;14.00;68.40
5868;DHT22;2960;49.142;7.768;2023-12-29T10:51:36;13.90;68.40
5868;DHT22;2960;49.142;7.768;2023-12-29T10:54:07;13.70;68.30
5868;DHT22;2960;49.142;7.768;2023-12-29T10:56:34;13.70;68.50
5868;DHT22;2960;49.142;7.768;2023-12-29T10:59:02;13.50;68.50
5868;DHT22;2960;49.142;7.768;2023-12-29T11:01:30;13.40;68.40
5868;DHT22;2960;49.142;7.768;2023-12-29T11:03:58;13.40;68.50
5868;DHT22;2960;49.142;7.768;2023-12-29T11:06:27;13.30;68.70
5868;DHT22;2960;49.142;7.768;2023-12-29T11:08:56;13.20;68.70
5868;DHT22;2960;49.142;7.768;2023-12-29T11:11:25;13.20;69.00
5868;DHT22;2960;49.142;7.768;2023-12-29T11:13:53;13.10;69.60
5868;DHT22;2960;49.142;7.768;2023-12-29T11:16:21;13.10;68.90
5868;DHT22;2960;49.142;7.768;2023-12-29T11:18:50;13.10;69.10
5868;DHT22;2960;49.142;7.768;2023-12-29T11:21:19;13.10;68.90
5868;DHT22;2960;49.142;7.768;2023-12-29T11:23:48;13.00;68.70
5868;DHT22;2960;49.142;7.768;2023-12-29T11:26:15;13.00;68.90
5868;DHT22;2960;49.142;7.768;2023-12-29T11:28:46;13.00;69.10
5868;DHT22;2960;49.142;7.768;2023-12-29T11:31:14;12.90;69.90
5868;DHT22;2960;49.142;7.768;2023-12-29T11:33:46;12.90;69.30
5868;DHT22;2960;49.142;7.768;2023-12-29T11:36:17;12.90;69.30
5868;DHT22;2960;49.142;7.768;2023-12-29T11:38:54;12.80;69.40
5868;DHT22;2960;49.142;7.768;2023-12-29T11:41:33;12.70;69.40
5868;DHT22;2960;49.142;7.768;2023-12-29T11:44:06;12.70;69.60
5868;DHT22;2960;49.142;7.768;2023-12-29T11:46:38;12.70;69.60
5868;DHT22;2960;49.142;7.768;2023-12-29T11:49:09;12.60;69.60
5868;DHT22;2960;49.142;7.768;2023-12-29T11:51:39;12.60;69.70
5868;DHT22;2960;49.142;7.768;2023-12-29T11:54:09;12.60;69.90
5868;DHT22;2960;49.142;7.768;2023-12-29T11:56:38;12.50;70.00
5868;DHT22;2960;49.142;7.768;2023-12-29T11:59:14;12.50;70.00
5868;DHT22;2960;49.142;7.768;2023-12-29T12:01:42;12.50;70.10
5868;DHT22;2960;49.142;7.768;2023-12-29T12:04:41;12.50;70.20
5868;DHT22;2960;49.142;7.768;2023-12-29T12:07:15;12.40;70.10
5868;DHT22;2960;49.142;7.768;2023-12-29T12:09:43;12.40;70.30
5868;DHT22;2960;49.142;7.768;2023-12-29T12:12:15;12.40;70.40
5868;DHT22;2960;49.142;7.768;2023-12-29T12:15:33;12.30;70.40
5868;DHT22;2960;49.142;7.768;2023-12-29T12:18:04;12.40;70.50
5868;DHT22;2960;49.142;7.768;2023-12-29T12:20:33;12.30;70.40
5868;DHT22;2960;49.142;7.768;2023-12-29T12:23:03;12.30;70.50
5868;DHT22;2960;49.142;7.768;2023-12-29T12:25:33;12.30;70.70
5868;DHT22;2960;49.142;7.768;2023-12-29T12:28:05;12.20;70.50
5868;DHT22;2960;49.142;7.768;2023-12-29T12:30:34;12.20;70.60
5868;DHT22;2960;49.142;7.768;2023-12-29T12:33:03;12.20;70.70
5868;DHT22;2960;49.142;7.768;2023-12-29T12:35:30;12.30;70.80
5868;DHT22;2960;49.142;7.768;2023-12-29T12:38:09;12.30;70.70
5868;DHT22;2960;49.142;7.768;2023-12-29T12:40:37;12.30;70.60
5868;DHT22;2960;49.142;7.768;2023-12-29T12:43:05;12.30;70.60
5868;DHT22;2960;49.142;7.768;2023-12-29T12:45:40;12.40;70.70
5868;DHT22;2960;49.142;7.768;2023-12-29T12:48:13;12.30;70.60
5868;DHT22;2960;49.142;7.768;2023-12-29T12:50:43;12.30;70.40
5868;DHT22;2960;49.142;7.768;2023-12-29T12:53:11;12.30;70.40
5868;DHT22;2960;49.142;7.768;2023-12-29T12:55:47;12.30;70.60
5868;DHT22;2960;49.142;7.768;2023-12-29T12:58:15;12.30;70.60
5868;DHT22;2960;49.142;7.768;2023-12-29T13:00:44;12.30;70.70
5868;DHT22;2960;49.142;7.768;2023-12-29T13:03:12;12.30;70.70
5868;DHT22;2960;49.142;7.768;2023-12-29T13:05:40;12.30;70.90
5868;DHT22;2960;49.142;7.768;2023-12-29T13:08:08;12.20;70.80
5868;DHT22;2960;49.142;7.768;2023-12-29T13:10:40;12.20;71.10
5868;DHT22;2960;49.142;7.768;2023-12-29T13:13:09;12.20;71.20
5868;DHT22;2960;49.142;7.768;2023-12-29T13:15:47;12.20;71.40
5868;DHT22;2960;49.142;7.768;2023-12-29T13:18:14;12.10;71.30
5868;DHT22;2960;49.142;7.768;2023-12-29T13:20:45;12.10;71.30
5868;DHT22;2960;49.142;7.768;2023-12-29T13:23:13;12.10;71.20
5868;DHT22;2960;49.142;7.768;2023-12-29T13:25:43;12.00;71.10
5868;DHT22;2960;49.142;7.768;2023-12-29T13:28:13;12.00;71.10
5868;DHT22;2960;49.142;7.768;2023-12-29T13:30:41;12.00;71.10
5868;DHT22;2960;49.142;7.768;2023-12-29T13:33:15;12.00;71.30
5868;DHT22;2960;49.142;7.768;2023-12-29T13:35:48;12.00;71.50
5868;DHT22;2960;49.142;7.768;2023-12-29T13:38:19;11.90;71.60
5868;DHT22;2960;49.142;7.768;2023-12-29T13:40:54;11.90;71.90
5868;DHT22;2960;49.142;7.768;2023-12-29T13:43:23;11.90;72.20
5868;DHT22;2960;49.142;7.768;2023-12-29T13:45:50;11.90;72.40
5868;DHT22;2960;49.142;7.768;2023-12-29T13:48:20;11.80;72.60
5868;DHT22;2960;49.142;7.768;2023-12-29T13:50:47;11.80;72.70
5868;DHT22;2960;49.142;7.768;2023-12-29T13:53:19;11.80;72.90
5868;DHT22;2960;49.142;7.768;2023-12-29T13:55:46;11.80;73.00
5868;DHT22;2960;49.142;7.768;2023-12-29T13:58:13;11.80;73.20
5868;DHT22;2960;49.142;7.768;2023-12-29T14:00:43;11.80;73.40
5868;DHT22;2960;49.142;7.768;2023-12-29T14:03:15;11.80;73.50
5868;DHT22;2960;49.142;7.768;2023-12-29T14:05:56;11.80;73.60
5868;DHT22;2960;49.142;7.768;2023-12-29T14:08:31;11.80;73.80
5868;DHT22;2960;49.142;7.768;2023-12-29T14:11:01;11.80;74.00
5868;DHT22;2960;49.142;7.768;2023-12-29T14:13:33;11.70;74.00
5868;DHT22;2960;49.142;7.768;2023-12-29T14:16:01;11.70;74.20
5868;DHT22;2960;49.142;7.768;2023-12-29T14:18:54;11.60;75.10
5868;DHT22;2960;49.142;7.768;2023-12-29T14:21:23;11.60;74.50
5868;DHT22;2960;49.142;7.768;2023-12-29T14:24:05;11.50;74.60
5868;DHT22;2960;49.142;7.768;2023-12-29T14:26:35;11.50;74.70
5868;DHT22;2960;49.142;7.768;2023-12-29T14:29:04;11.40;74.80
5868;DHT22;2960;49.142;7.768;2023-12-29T14:31:34;11.50;75.10
5868;DHT22;2960;49.142;7.768;2023-12-29T14:34:05;11.40;75.00
5868;DHT22;2960;49.142;7.768;2023-12-29T14:36:33;11.40;74.90
5868;DHT22;2960;49.142;7.768;2023-12-29T14:39:03;11.40;74.90
5868;DHT22;2960;49.142;7.768;2023-12-29T14:41:32;11.40;74.90
5868;DHT22;2960;49.142;7.768;2023-12-29T14:43:59;11.40;74.90
5868;DHT22;2960;49.142;7.768;2023-12-29T14:46:29;11.40;74.90
5868;DHT22;2960;49.142;7.768;2023-12-29T14:49:00;11.40;74.80
5868;DHT22;2960;49.142;7.768;2023-12-29T14:51:29;11.40;74.70
5868;DHT22;2960;49.142;7.768;2023-12-29T14:53:56;11.30;74.60
5868;DHT22;2960;49.142;7.768;2023-12-29T14:56:23;11.40;74.60
5868;DHT22;2960;49.142;7.768;2023-12-29T14:58:50;11.30;74.50
5868;DHT22;2960;49.142;7.768;2023-12-29T15:01:18;11.30;74.50
5868;DHT22;2960;49.142;7.768;2023-12-29T15:03:45;11.30;74.60
5868;DHT22;2960;49.142;7.768;2023-12-29T15:06:12;11.30;74.60
5868;DHT22;2960;49.142;7.768;2023-12-29T15:08:41;11.30;74.60
5868;DHT22;2960;49.142;7.768;2023-12-29T15:11:08;11.30;74.50
5868;DHT22;2960;49.142;7.768;2023-12-29T15:13:35;11.40;74.50
5868;DHT22;2960;49.142;7.768;2023-12-29T15:16:04;11.30;74.30
5868;DHT22;2960;49.142;7.768;2023-12-29T15:18:32;11.30;74.30
5868;DHT22;2960;49.142;7.768;2023-12-29T15:20:59;11.40;74.40
5868;DHT22;2960;49.142;7.768;2023-12-29T15:23:27;11.30;74.10
5868;DHT22;2960;49.142;7.768;2023-12-29T15:25:55;11.40;74.20
5868;DHT22;2960;49.142;7.768;2023-12-29T15:28:23;11.40;74.90
5868;DHT22;2960;49.142;7.768;2023-12-29T15:30:50;11.40;74.10
5868;DHT22;2960;49.142;7.768;2023-12-29T15:33:17;11.40;73.90
5868;DHT22;2960;49.142;7.768;2023-12-29T15:35:44;11.30;73.80
5868;DHT22;2960;49.142;7.768;2023-12-29T15:38:11;11.30;73.80
5868;DHT22;2960;49.142;7.768;2023-12-29T15:40:39;11.30;73.80
5868;DHT22;2960;49.142;7.768;2023-12-29T15:43:07;11.30;73.70
5868;DHT22;2960;49.142;7.768;2023-12-29T15:45:34;11.30;73.70
5868;DHT22;2960;49.142;7.768;2023-12-29T15:48:02;11.40;73.80
5868;DHT22;2960;49.142;7.768;2023-12-29T15:50:29;11.30;73.60
5868;DHT22;2960;49.142;7.768;2023-12-29T15:52:56;11.40;73.70
5868;DHT22;2960;49.142;7.768;2023-12-29T15:55:23;11.40;73.80
5868;DHT22;2960;49.142;7.768;2023-12-29T15:57:50;11.40;73.80
5868;DHT22;2960;49.142;7.768;2023-12-29T16:00:19;11.40;73.80
5868;DHT22;2960;49.142;7.768;2023-12-29T16:02:48;11.50;73.70
5868;DHT22;2960;49.142;7.768;2023-12-29T16:05:15;11.50;73.60
5868;DHT22;2960;49.142;7.768;2023-12-29T16:07:42;11.50;73.60
5868;DHT22;2960;49.142;7.768;2023-12-29T16:10:09;11.40;73.50
5868;DHT22;2960;49.142;7.768;2023-12-29T16:12:37;11.50;74.40